EWG6NK EDDK-LIEO
Flight info
| Callsign | EWG6NK |
|---|---|
| Flight time | 1h 41m |
| Altitude | 37000 |
| Route | KUMIK2Q KUMIK Y854 BOMBI DCT GIGET DCT ABUKA DCT BATUB DCT TIRUL M738 NATAG DCT LORLO DCT ATPED DCT GILIO DCT MAMAR DCT ABIDU DCT GITRI GITRI2R |
| Aircraft | A320/M-SDE2E3FGIJ1RWXYZ/HB1 |
Departure
| Time | 2026-04-22 08:08 |
|---|---|
| Airport | Cologne Bonn Airport (EDDK) |
Arrival
| Time | 2026-04-22 09:49 |
|---|---|
| Airport | Olbia Costa Smeralda Airport (LIEO) |
| Time | Latitude | Longitude | Altitude | Speed | Heading |
|---|---|---|---|---|---|
| 2026-04-22 07:36 | 50.87962 | 7.12411 | 233 ft | 0 kts | 245° |
| 2026-04-22 08:01 | 50.87968 | 7.12430 | 232 ft | 2 kts | 245° |
| 2026-04-22 08:01 | 50.87978 | 7.12467 | 236 ft | 4 kts | 246° |
| 2026-04-22 08:02 | 50.87990 | 7.12500 | 235 ft | 4 kts | 195° |
| 2026-04-22 08:02 | 50.87996 | 7.12503 | 236 ft | 0 kts | 138° |
| 2026-04-22 08:04 | 50.87974 | 7.12550 | 232 ft | 10 kts | 95° |
| 2026-04-22 08:04 | 50.87953 | 7.12648 | 232 ft | 10 kts | 72° |
| 2026-04-22 08:04 | 50.87992 | 7.12732 | 238 ft | 8 kts | 58° |
| 2026-04-22 08:04 | 50.87999 | 7.12765 | 237 ft | 0 kts | 75° |
| 2026-04-22 08:05 | 50.88002 | 7.12783 | 237 ft | 7 kts | 75° |
| 2026-04-22 08:05 | 50.88013 | 7.12912 | 239 ft | 13 kts | 80° |
| 2026-04-22 08:06 | 50.87995 | 7.12991 | 239 ft | 0 kts | 141° |
| 2026-04-22 08:07 | 50.87971 | 7.13021 | 239 ft | 17 kts | 140° |
| 2026-04-22 08:07 | 50.87703 | 7.13422 | 239 ft | 88 kts | 136° |
| 2026-04-22 08:07 | 50.87103 | 7.14299 | 252 ft | 143 kts | 137° |
| 2026-04-22 08:07 | 50.86306 | 7.15447 | 725 ft | 151 kts | 135° |
| 2026-04-22 08:08 | 50.85527 | 7.16554 | 1564 ft | 155 kts | 136° |
| 2026-04-22 08:08 | 50.84699 | 7.17726 | 2311 ft | 163 kts | 135° |
| 2026-04-22 08:08 | 50.83820 | 7.18967 | 2850 ft | 176 kts | 135° |
| 2026-04-22 08:08 | 50.82879 | 7.20295 | 3299 ft | 191 kts | 136° |
| 2026-04-22 08:09 | 50.81969 | 7.21933 | 3779 ft | 205 kts | 115° |
| 2026-04-22 08:09 | 50.81448 | 7.24091 | 4458 ft | 213 kts | 101° |
| 2026-04-22 08:09 | 50.81207 | 7.26442 | 5187 ft | 224 kts | 97° |
| 2026-04-22 08:09 | 50.81157 | 7.29033 | 5668 ft | 244 kts | 86° |
| 2026-04-22 08:10 | 50.81248 | 7.31685 | 6559 ft | 248 kts | 86° |
| 2026-04-22 08:10 | 50.81348 | 7.34458 | 7388 ft | 255 kts | 86° |
| 2026-04-22 08:10 | 50.81449 | 7.37285 | 8256 ft | 259 kts | 86° |
| 2026-04-22 08:10 | 50.81515 | 7.39179 | 8885 ft | 261 kts | 86° |
| 2026-04-22 08:11 | 50.81616 | 7.42069 | 9803 ft | 264 kts | 86° |
| 2026-04-22 08:11 | 50.81752 | 7.45966 | 10733 ft | 277 kts | 86° |
| 2026-04-22 08:11 | 50.81824 | 7.48079 | 10919 ft | 293 kts | 86° |
| 2026-04-22 08:11 | 50.81935 | 7.51347 | 11400 ft | 307 kts | 86° |
| 2026-04-22 08:12 | 50.82048 | 7.54754 | 12128 ft | 312 kts | 86° |
| 2026-04-22 08:12 | 50.82159 | 7.58212 | 12899 ft | 316 kts | 86° |
| 2026-04-22 08:12 | 50.82271 | 7.61715 | 13664 ft | 320 kts | 86° |
| 2026-04-22 08:12 | 50.82371 | 7.65257 | 14381 ft | 324 kts | 89° |
| 2026-04-22 08:13 | 50.81985 | 7.68793 | 15009 ft | 332 kts | 109° |
| 2026-04-22 08:13 | 50.80773 | 7.71941 | 15657 ft | 342 kts | 130° |
| 2026-04-22 08:13 | 50.78857 | 7.74159 | 16276 ft | 354 kts | 152° |
| 2026-04-22 08:13 | 50.76454 | 7.75227 | 16912 ft | 363 kts | 164° |
| 2026-04-22 08:14 | 50.74058 | 7.76454 | 17545 ft | 362 kts | 151° |
| 2026-04-22 08:14 | 50.71768 | 7.78161 | 18193 ft | 365 kts | 151° |
| 2026-04-22 08:14 | 50.69458 | 7.79873 | 18797 ft | 369 kts | 151° |
| 2026-04-22 08:14 | 50.67115 | 7.81598 | 19342 ft | 372 kts | 151° |
| 2026-04-22 08:15 | 50.64755 | 7.83328 | 19900 ft | 376 kts | 151° |
| 2026-04-22 08:15 | 50.62372 | 7.85074 | 20452 ft | 379 kts | 151° |
| 2026-04-22 08:15 | 50.59969 | 7.86838 | 20998 ft | 382 kts | 151° |
| 2026-04-22 08:15 | 50.57553 | 7.88611 | 21532 ft | 385 kts | 152° |
| 2026-04-22 08:16 | 50.55108 | 7.90402 | 22054 ft | 389 kts | 152° |
| 2026-04-22 08:16 | 50.52672 | 7.92183 | 22572 ft | 392 kts | 152° |
| 2026-04-22 08:16 | 50.50188 | 7.93997 | 23093 ft | 395 kts | 152° |
| 2026-04-22 08:16 | 50.47679 | 7.95827 | 23603 ft | 398 kts | 152° |
| 2026-04-22 08:17 | 50.45157 | 7.97665 | 24063 ft | 401 kts | 152° |
| 2026-04-22 08:17 | 50.42606 | 7.99523 | 24498 ft | 404 kts | 152° |
| 2026-04-22 08:17 | 50.40071 | 8.01368 | 24913 ft | 406 kts | 152° |
| 2026-04-22 08:17 | 50.37505 | 8.03234 | 25332 ft | 409 kts | 152° |
| 2026-04-22 08:18 | 50.34919 | 8.05108 | 25730 ft | 411 kts | 152° |
| 2026-04-22 08:18 | 50.32309 | 8.06994 | 26137 ft | 413 kts | 152° |
| 2026-04-22 08:18 | 50.29680 | 8.08893 | 26527 ft | 416 kts | 152° |
| 2026-04-22 08:18 | 50.27078 | 8.10773 | 26907 ft | 418 kts | 152° |
| 2026-04-22 08:19 | 50.24426 | 8.12688 | 27289 ft | 421 kts | 152° |
| 2026-04-22 08:19 | 50.21752 | 8.14623 | 27681 ft | 423 kts | 152° |
| 2026-04-22 08:19 | 50.19073 | 8.16563 | 28046 ft | 426 kts | 152° |
| 2026-04-22 08:19 | 50.16364 | 8.18518 | 28421 ft | 428 kts | 153° |
| 2026-04-22 08:20 | 50.13684 | 8.20447 | 28789 ft | 431 kts | 153° |
| 2026-04-22 08:20 | 50.10942 | 8.22414 | 29146 ft | 433 kts | 153° |
| 2026-04-22 08:20 | 50.08194 | 8.24377 | 29487 ft | 436 kts | 153° |
| 2026-04-22 08:20 | 50.05433 | 8.26346 | 29847 ft | 438 kts | 153° |
| 2026-04-22 08:21 | 50.02650 | 8.28333 | 30201 ft | 440 kts | 153° |
| 2026-04-22 08:21 | 49.99855 | 8.30326 | 30513 ft | 443 kts | 153° |
| 2026-04-22 08:21 | 49.97043 | 8.32333 | 30773 ft | 446 kts | 153° |
| 2026-04-22 08:21 | 49.94211 | 8.34352 | 31022 ft | 448 kts | 153° |
| 2026-04-22 08:22 | 49.91391 | 8.36360 | 31252 ft | 451 kts | 153° |
| 2026-04-22 08:22 | 49.88523 | 8.38402 | 31497 ft | 454 kts | 153° |
| 2026-04-22 08:22 | 49.85642 | 8.40448 | 31717 ft | 456 kts | 154° |
| 2026-04-22 08:22 | 49.82749 | 8.42496 | 32062 ft | 457 kts | 154° |
| 2026-04-22 08:23 | 49.79844 | 8.44546 | 32390 ft | 457 kts | 154° |
| 2026-04-22 08:23 | 49.76984 | 8.46562 | 32700 ft | 458 kts | 154° |
| 2026-04-22 08:23 | 49.74081 | 8.48609 | 33007 ft | 459 kts | 154° |
| 2026-04-22 08:23 | 49.71171 | 8.50661 | 33323 ft | 460 kts | 154° |
| 2026-04-22 08:24 | 49.68251 | 8.52717 | 33622 ft | 460 kts | 154° |
| 2026-04-22 08:24 | 49.65336 | 8.54768 | 33929 ft | 461 kts | 154° |
| 2026-04-22 08:24 | 49.62400 | 8.56835 | 34232 ft | 462 kts | 154° |
| 2026-04-22 08:24 | 49.59513 | 8.58859 | 34504 ft | 463 kts | 154° |
| 2026-04-22 08:25 | 49.56570 | 8.60914 | 34762 ft | 464 kts | 155° |
| 2026-04-22 08:25 | 49.53629 | 8.62962 | 35004 ft | 464 kts | 155° |
| 2026-04-22 08:25 | 49.50675 | 8.65019 | 35241 ft | 465 kts | 155° |
| 2026-04-22 08:25 | 49.47720 | 8.67081 | 35315 ft | 466 kts | 155° |
| 2026-04-22 08:26 | 49.41801 | 8.71052 | 35321 ft | 466 kts | 157° |
| 2026-04-22 08:26 | 49.35779 | 8.74784 | 35315 ft | 467 kts | 158° |
| 2026-04-22 08:27 | 49.29746 | 8.78584 | 35545 ft | 467 kts | 153° |
| 2026-04-22 08:27 | 49.26824 | 8.80801 | 35792 ft | 468 kts | 152° |
| 2026-04-22 08:27 | 49.23964 | 8.83034 | 36011 ft | 468 kts | 152° |
| 2026-04-22 08:28 | 49.21071 | 8.85338 | 36223 ft | 469 kts | 152° |
| 2026-04-22 08:28 | 49.18181 | 8.87653 | 36451 ft | 469 kts | 152° |
| 2026-04-22 08:28 | 49.15278 | 8.89969 | 36654 ft | 470 kts | 152° |
| 2026-04-22 08:28 | 49.12376 | 8.92262 | 36884 ft | 470 kts | 152° |
| 2026-04-22 08:29 | 49.09457 | 8.94544 | 37088 ft | 470 kts | 152° |
| 2026-04-22 08:29 | 49.06539 | 8.96817 | 37234 ft | 471 kts | 152° |
| 2026-04-22 08:29 | 49.00753 | 9.01319 | 37261 ft | 469 kts | 152° |
| 2026-04-22 08:30 | 48.94940 | 9.05839 | 37263 ft | 469 kts | 152° |
| 2026-04-22 08:30 | 48.89112 | 9.10359 | 37267 ft | 469 kts | 153° |
| 2026-04-22 08:31 | 48.83369 | 9.14808 | 37268 ft | 469 kts | 153° |
| 2026-04-22 08:32 | 48.74623 | 9.21564 | 37274 ft | 470 kts | 153° |
| 2026-04-22 08:32 | 48.68786 | 9.26047 | 37272 ft | 470 kts | 153° |
| 2026-04-22 08:33 | 48.62963 | 9.30503 | 37274 ft | 471 kts | 153° |
| 2026-04-22 08:33 | 48.57106 | 9.34991 | 37265 ft | 471 kts | 153° |
| 2026-04-22 08:34 | 48.51285 | 9.39436 | 37255 ft | 471 kts | 153° |
| 2026-04-22 08:34 | 48.45416 | 9.43898 | 37243 ft | 472 kts | 153° |
| 2026-04-22 08:35 | 48.39573 | 9.48338 | 37234 ft | 472 kts | 153° |
| 2026-04-22 08:35 | 48.33685 | 9.52804 | 37239 ft | 473 kts | 153° |
| 2026-04-22 08:36 | 48.27799 | 9.57238 | 37240 ft | 473 kts | 153° |
| 2026-04-22 08:36 | 48.21948 | 9.61644 | 37237 ft | 473 kts | 154° |
| 2026-04-22 08:37 | 48.16061 | 9.66061 | 37237 ft | 473 kts | 154° |
| 2026-04-22 08:37 | 48.10142 | 9.70495 | 37239 ft | 474 kts | 154° |
| 2026-04-22 08:38 | 48.04227 | 9.74912 | 37233 ft | 474 kts | 154° |
| 2026-04-22 08:38 | 47.98344 | 9.79293 | 37230 ft | 475 kts | 154° |
| 2026-04-22 08:39 | 47.92407 | 9.83689 | 37213 ft | 475 kts | 154° |
| 2026-04-22 08:39 | 47.86512 | 9.88044 | 37212 ft | 475 kts | 154° |
| 2026-04-22 08:40 | 47.80572 | 9.92426 | 37210 ft | 476 kts | 154° |
| 2026-04-22 08:40 | 47.74634 | 9.96807 | 37205 ft | 476 kts | 154° |
| 2026-04-22 08:41 | 47.68718 | 10.01162 | 37192 ft | 476 kts | 154° |
| 2026-04-22 08:41 | 47.62760 | 10.05519 | 37182 ft | 476 kts | 154° |
| 2026-04-22 08:42 | 47.56848 | 10.09841 | 37177 ft | 476 kts | 154° |
| 2026-04-22 08:42 | 47.50887 | 10.14181 | 37164 ft | 476 kts | 154° |
| 2026-04-22 08:43 | 47.44972 | 10.18475 | 37158 ft | 476 kts | 155° |
| 2026-04-22 08:43 | 47.39004 | 10.22798 | 37154 ft | 477 kts | 155° |
| 2026-04-22 08:44 | 47.33046 | 10.27102 | 37150 ft | 477 kts | 155° |
| 2026-04-22 08:44 | 47.27109 | 10.31381 | 37154 ft | 477 kts | 155° |
| 2026-04-22 08:45 | 47.21133 | 10.35683 | 37157 ft | 478 kts | 155° |
| 2026-04-22 08:45 | 47.15147 | 10.39989 | 37156 ft | 478 kts | 155° |
| 2026-04-22 08:46 | 47.09197 | 10.44253 | 37162 ft | 478 kts | 155° |
| 2026-04-22 08:46 | 47.03198 | 10.48541 | 37180 ft | 479 kts | 154° |
| 2026-04-22 08:47 | 46.97295 | 10.52972 | 37172 ft | 479 kts | 153° |
| 2026-04-22 08:47 | 46.91397 | 10.57569 | 37182 ft | 479 kts | 153° |
| 2026-04-22 08:48 | 46.85477 | 10.61906 | 37180 ft | 477 kts | 163° |
| 2026-04-22 08:48 | 46.82257 | 10.62999 | 37171 ft | 472 kts | 178° |
| 2026-04-22 08:48 | 46.78983 | 10.63301 | 37177 ft | 471 kts | 180° |
| 2026-04-22 08:49 | 46.72421 | 10.63726 | 37159 ft | 471 kts | 181° |
| 2026-04-22 08:49 | 46.65877 | 10.64248 | 37140 ft | 472 kts | 179° |
| 2026-04-22 08:50 | 46.59352 | 10.64991 | 37136 ft | 473 kts | 178° |
| 2026-04-22 08:50 | 46.52771 | 10.65747 | 37124 ft | 473 kts | 179° |
| 2026-04-22 08:51 | 46.46185 | 10.66445 | 37115 ft | 474 kts | 179° |
| 2026-04-22 08:51 | 46.39636 | 10.67113 | 37108 ft | 473 kts | 179° |
| 2026-04-22 08:52 | 46.33046 | 10.67794 | 37103 ft | 474 kts | 179° |
| 2026-04-22 08:52 | 46.26444 | 10.68480 | 37109 ft | 475 kts | 179° |
| 2026-04-22 08:53 | 46.19899 | 10.69156 | 37098 ft | 474 kts | 180° |
| 2026-04-22 08:53 | 46.13302 | 10.69838 | 37093 ft | 474 kts | 180° |
| 2026-04-22 08:54 | 46.06711 | 10.70512 | 37087 ft | 474 kts | 180° |
| 2026-04-22 08:54 | 46.00157 | 10.71191 | 37090 ft | 475 kts | 180° |
| 2026-04-22 08:55 | 45.93557 | 10.71872 | 37082 ft | 475 kts | 180° |
| 2026-04-22 08:55 | 45.86952 | 10.72547 | 37087 ft | 476 kts | 180° |
| 2026-04-22 08:56 | 45.80369 | 10.73225 | 37094 ft | 476 kts | 180° |
| 2026-04-22 08:56 | 45.73737 | 10.73897 | 37104 ft | 477 kts | 180° |
| 2026-04-22 08:57 | 45.67100 | 10.74567 | 37132 ft | 478 kts | 180° |
| 2026-04-22 08:57 | 45.60509 | 10.75244 | 37144 ft | 477 kts | 180° |
| 2026-04-22 08:58 | 45.53885 | 10.75912 | 37170 ft | 478 kts | 181° |
| 2026-04-22 08:58 | 45.47229 | 10.76576 | 37181 ft | 478 kts | 181° |
| 2026-04-22 08:59 | 45.40633 | 10.77243 | 37181 ft | 478 kts | 181° |
| 2026-04-22 08:59 | 45.33983 | 10.77915 | 37178 ft | 478 kts | 181° |
| 2026-04-22 09:00 | 45.28454 | 10.78471 | 37171 ft | 478 kts | 181° |
| 2026-04-22 09:00 | 45.20734 | 10.79240 | 37123 ft | 478 kts | 181° |
| 2026-04-22 09:01 | 45.15202 | 10.79782 | 37125 ft | 478 kts | 181° |
| 2026-04-22 09:01 | 45.08588 | 10.80444 | 37122 ft | 478 kts | 181° |
| 2026-04-22 09:02 | 45.01967 | 10.81111 | 37123 ft | 478 kts | 182° |
| 2026-04-22 09:02 | 44.95324 | 10.81769 | 37119 ft | 478 kts | 182° |
| 2026-04-22 09:03 | 44.88695 | 10.82424 | 37134 ft | 478 kts | 182° |
| 2026-04-22 09:03 | 44.82086 | 10.83076 | 37135 ft | 478 kts | 182° |
| 2026-04-22 09:04 | 44.75432 | 10.83735 | 37130 ft | 477 kts | 182° |
| 2026-04-22 09:04 | 44.68807 | 10.84382 | 37126 ft | 477 kts | 182° |
| 2026-04-22 09:05 | 44.62186 | 10.85022 | 37125 ft | 476 kts | 182° |
| 2026-04-22 09:05 | 44.55596 | 10.85661 | 37122 ft | 476 kts | 182° |
| 2026-04-22 09:06 | 44.49018 | 10.86308 | 37119 ft | 476 kts | 182° |
| 2026-04-22 09:06 | 44.42409 | 10.86960 | 37104 ft | 476 kts | 182° |
| 2026-04-22 09:07 | 44.35806 | 10.87598 | 37093 ft | 475 kts | 182° |
| 2026-04-22 09:07 | 44.29196 | 10.88238 | 37083 ft | 475 kts | 182° |
| 2026-04-22 09:08 | 44.22635 | 10.88866 | 37088 ft | 475 kts | 182° |
| 2026-04-22 09:08 | 44.16016 | 10.89498 | 37085 ft | 475 kts | 182° |
| 2026-04-22 09:09 | 44.09440 | 10.90141 | 37089 ft | 475 kts | 182° |
| 2026-04-22 09:09 | 44.02838 | 10.90775 | 37090 ft | 475 kts | 182° |
| 2026-04-22 09:10 | 43.96235 | 10.91406 | 37093 ft | 475 kts | 182° |
| 2026-04-22 09:10 | 43.89683 | 10.92033 | 37095 ft | 474 kts | 182° |
| 2026-04-22 09:11 | 43.83087 | 10.92656 | 37112 ft | 474 kts | 182° |
| 2026-04-22 09:11 | 43.76509 | 10.93282 | 37116 ft | 474 kts | 182° |
| 2026-04-22 09:12 | 43.69918 | 10.93907 | 37100 ft | 473 kts | 182° |
| 2026-04-22 09:12 | 43.63391 | 10.94523 | 37104 ft | 472 kts | 182° |
| 2026-04-22 09:13 | 43.56822 | 10.95158 | 37105 ft | 472 kts | 182° |
| 2026-04-22 09:13 | 43.50269 | 10.95775 | 37101 ft | 471 kts | 182° |
| 2026-04-22 09:14 | 43.43762 | 10.96378 | 37093 ft | 470 kts | 182° |
| 2026-04-22 09:14 | 43.37209 | 10.96987 | 37094 ft | 470 kts | 182° |
| 2026-04-22 09:15 | 43.30718 | 10.97591 | 37091 ft | 470 kts | 182° |
| 2026-04-22 09:15 | 43.24186 | 10.98212 | 37084 ft | 469 kts | 183° |
| 2026-04-22 09:16 | 43.17882 | 10.97663 | 37081 ft | 447 kts | 203° |
| 2026-04-22 09:16 | 43.11885 | 10.95430 | 37090 ft | 446 kts | 203° |
| 2026-04-22 09:17 | 43.05894 | 10.93156 | 37080 ft | 446 kts | 204° |
| 2026-04-22 09:17 | 42.99942 | 10.90882 | 37059 ft | 446 kts | 204° |
| 2026-04-22 09:18 | 42.93955 | 10.88567 | 37056 ft | 446 kts | 204° |
| 2026-04-22 09:18 | 42.87993 | 10.86339 | 37061 ft | 445 kts | 203° |
| 2026-04-22 09:19 | 42.82008 | 10.84131 | 37065 ft | 445 kts | 203° |
| 2026-04-22 09:19 | 42.76064 | 10.81938 | 37061 ft | 444 kts | 203° |
| 2026-04-22 09:20 | 42.70108 | 10.79723 | 37066 ft | 443 kts | 203° |
| 2026-04-22 09:20 | 42.64156 | 10.77510 | 37067 ft | 442 kts | 203° |
| 2026-04-22 09:21 | 42.58437 | 10.74780 | 37068 ft | 435 kts | 209° |
| 2026-04-22 09:21 | 42.52821 | 10.71754 | 37061 ft | 434 kts | 210° |
| 2026-04-22 09:22 | 42.47237 | 10.68722 | 37062 ft | 434 kts | 209° |
| 2026-04-22 09:22 | 42.41610 | 10.65707 | 37063 ft | 433 kts | 209° |
| 2026-04-22 09:23 | 42.35998 | 10.62725 | 37051 ft | 432 kts | 209° |
| 2026-04-22 09:23 | 42.30423 | 10.59764 | 37048 ft | 432 kts | 209° |
| 2026-04-22 09:24 | 42.24845 | 10.56805 | 37044 ft | 432 kts | 209° |
| 2026-04-22 09:24 | 42.19280 | 10.53751 | 37043 ft | 430 kts | 211° |
| 2026-04-22 09:25 | 42.13868 | 10.50347 | 37039 ft | 427 kts | 213° |
| 2026-04-22 09:25 | 42.08511 | 10.46839 | 35889 ft | 440 kts | 213° |
| 2026-04-22 09:25 | 42.05724 | 10.45044 | 35186 ft | 442 kts | 213° |
| 2026-04-22 09:26 | 42.02964 | 10.43315 | 34863 ft | 434 kts | 213° |
| 2026-04-22 09:26 | 42.00224 | 10.41620 | 34332 ft | 431 kts | 213° |
| 2026-04-22 09:26 | 41.97540 | 10.39963 | 33785 ft | 429 kts | 213° |
| 2026-04-22 09:26 | 41.94838 | 10.38292 | 33253 ft | 425 kts | 213° |
| 2026-04-22 09:27 | 41.92166 | 10.36636 | 32751 ft | 421 kts | 213° |
| 2026-04-22 09:27 | 41.89521 | 10.34991 | 32236 ft | 417 kts | 213° |
| 2026-04-22 09:27 | 41.86899 | 10.33361 | 31748 ft | 414 kts | 213° |
| 2026-04-22 09:27 | 41.84287 | 10.31737 | 31255 ft | 411 kts | 213° |
| 2026-04-22 09:28 | 41.81699 | 10.30123 | 30773 ft | 408 kts | 213° |
| 2026-04-22 09:28 | 41.79168 | 10.28545 | 30307 ft | 405 kts | 213° |
| 2026-04-22 09:28 | 41.76619 | 10.26963 | 29796 ft | 402 kts | 213° |
| 2026-04-22 09:28 | 41.74088 | 10.25397 | 29352 ft | 397 kts | 213° |
| 2026-04-22 09:29 | 41.71592 | 10.23856 | 28911 ft | 392 kts | 213° |
| 2026-04-22 09:29 | 41.69130 | 10.22335 | 28480 ft | 387 kts | 213° |
| 2026-04-22 09:29 | 41.66721 | 10.20844 | 28052 ft | 383 kts | 213° |
| 2026-04-22 09:29 | 41.64314 | 10.19355 | 27630 ft | 379 kts | 213° |
| 2026-04-22 09:30 | 41.61924 | 10.17874 | 27200 ft | 375 kts | 213° |
| 2026-04-22 09:30 | 41.59567 | 10.16416 | 26766 ft | 371 kts | 213° |
| 2026-04-22 09:30 | 41.57233 | 10.14972 | 26343 ft | 368 kts | 213° |
| 2026-04-22 09:30 | 41.54935 | 10.13554 | 25894 ft | 366 kts | 212° |
| 2026-04-22 09:31 | 41.52627 | 10.12139 | 25460 ft | 364 kts | 212° |
| 2026-04-22 09:31 | 41.50327 | 10.10733 | 25003 ft | 362 kts | 212° |
| 2026-04-22 09:31 | 41.48043 | 10.09332 | 24547 ft | 361 kts | 212° |
| 2026-04-22 09:31 | 41.45767 | 10.07938 | 24091 ft | 359 kts | 212° |
| 2026-04-22 09:32 | 41.43498 | 10.06547 | 23617 ft | 359 kts | 212° |
| 2026-04-22 09:32 | 41.41237 | 10.05155 | 23111 ft | 357 kts | 212° |
| 2026-04-22 09:32 | 41.39009 | 10.03790 | 22661 ft | 354 kts | 211° |
| 2026-04-22 09:32 | 41.36765 | 10.02418 | 22195 ft | 352 kts | 211° |
| 2026-04-22 09:33 | 41.34536 | 10.01057 | 21767 ft | 350 kts | 211° |
| 2026-04-22 09:33 | 41.32353 | 9.99725 | 21333 ft | 348 kts | 211° |
| 2026-04-22 09:33 | 41.30153 | 9.98384 | 20905 ft | 346 kts | 211° |
| 2026-04-22 09:33 | 41.27965 | 9.97052 | 20470 ft | 345 kts | 211° |
| 2026-04-22 09:34 | 41.25781 | 9.95722 | 20038 ft | 344 kts | 211° |
| 2026-04-22 09:34 | 41.23609 | 9.94398 | 19614 ft | 342 kts | 211° |
| 2026-04-22 09:34 | 41.21443 | 9.93081 | 19196 ft | 342 kts | 211° |
| 2026-04-22 09:35 | 41.17149 | 9.90475 | 18354 ft | 341 kts | 211° |
| 2026-04-22 09:35 | 41.14989 | 9.89162 | 17919 ft | 339 kts | 211° |
| 2026-04-22 09:35 | 41.12863 | 9.87874 | 17699 ft | 332 kts | 211° |
| 2026-04-22 09:35 | 41.10772 | 9.86606 | 17364 ft | 328 kts | 211° |
| 2026-04-22 09:36 | 41.08718 | 9.85359 | 17011 ft | 326 kts | 211° |
| 2026-04-22 09:36 | 41.06665 | 9.84111 | 16514 ft | 328 kts | 210° |
| 2026-04-22 09:36 | 41.04550 | 9.82819 | 15790 ft | 338 kts | 210° |
| 2026-04-22 09:36 | 41.02411 | 9.81519 | 15328 ft | 339 kts | 210° |
| 2026-04-22 09:37 | 41.00286 | 9.80236 | 14940 ft | 337 kts | 210° |
| 2026-04-22 09:37 | 40.98156 | 9.78955 | 14564 ft | 335 kts | 209° |
| 2026-04-22 09:37 | 40.96038 | 9.77684 | 14191 ft | 333 kts | 209° |
| 2026-04-22 09:37 | 40.93927 | 9.76416 | 13819 ft | 331 kts | 209° |
| 2026-04-22 09:38 | 40.91830 | 9.75156 | 13406 ft | 329 kts | 209° |
| 2026-04-22 09:38 | 40.89775 | 9.73919 | 12990 ft | 327 kts | 209° |
| 2026-04-22 09:38 | 40.87701 | 9.72661 | 12587 ft | 325 kts | 211° |
| 2026-04-22 09:38 | 40.85853 | 9.71019 | 12186 ft | 315 kts | 227° |
| 2026-04-22 09:39 | 40.84465 | 9.68832 | 11782 ft | 308 kts | 239° |
| 2026-04-22 09:39 | 40.83264 | 9.66526 | 11364 ft | 308 kts | 239° |
| 2026-04-22 09:39 | 40.82052 | 9.64203 | 10953 ft | 306 kts | 239° |
| 2026-04-22 09:39 | 40.80844 | 9.61889 | 10569 ft | 304 kts | 239° |
| 2026-04-22 09:40 | 40.79645 | 9.59596 | 10153 ft | 303 kts | 239° |
| 2026-04-22 09:40 | 40.78447 | 9.57307 | 9771 ft | 301 kts | 239° |
| 2026-04-22 09:40 | 40.77274 | 9.55064 | 9363 ft | 300 kts | 239° |
| 2026-04-22 09:40 | 40.76098 | 9.52815 | 8751 ft | 295 kts | 239° |
| 2026-04-22 09:41 | 40.74934 | 9.50589 | 8018 ft | 293 kts | 238° |
| 2026-04-22 09:41 | 40.73777 | 9.48382 | 7309 ft | 290 kts | 238° |
| 2026-04-22 09:41 | 40.72634 | 9.46209 | 6566 ft | 289 kts | 237° |
| 2026-04-22 09:41 | 40.71493 | 9.44037 | 5846 ft | 287 kts | 237° |
| 2026-04-22 09:42 | 40.70361 | 9.41882 | 5220 ft | 284 kts | 237° |
| 2026-04-22 09:42 | 40.69348 | 9.39743 | 5023 ft | 264 kts | 250° |
| 2026-04-22 09:42 | 40.69094 | 9.37504 | 4903 ft | 243 kts | 278° |
| 2026-04-22 09:42 | 40.69705 | 9.35535 | 4694 ft | 227 kts | 310° |
| 2026-04-22 09:43 | 40.70924 | 9.34323 | 4505 ft | 220 kts | 329° |
| 2026-04-22 09:43 | 40.72261 | 9.33300 | 4275 ft | 223 kts | 328° |
| 2026-04-22 09:43 | 40.73591 | 9.32276 | 4087 ft | 219 kts | 328° |
| 2026-04-22 09:43 | 40.74898 | 9.31303 | 3986 ft | 211 kts | 335° |
| 2026-04-22 09:44 | 40.76283 | 9.30828 | 3998 ft | 204 kts | 355° |
| 2026-04-22 09:44 | 40.77681 | 9.30977 | 4001 ft | 202 kts | 13° |
| 2026-04-22 09:44 | 40.78970 | 9.31713 | 3952 ft | 204 kts | 31° |
| 2026-04-22 09:44 | 40.80009 | 9.32995 | 3733 ft | 207 kts | 53° |
| 2026-04-22 09:45 | 40.80835 | 9.34558 | 3461 ft | 206 kts | 54° |
| 2026-04-22 09:45 | 40.81631 | 9.36075 | 3144 ft | 202 kts | 55° |
| 2026-04-22 09:45 | 40.82416 | 9.37569 | 2830 ft | 192 kts | 55° |
| 2026-04-22 09:45 | 40.83147 | 9.38957 | 2538 ft | 178 kts | 55° |
| 2026-04-22 09:46 | 40.83826 | 9.40258 | 2256 ft | 167 kts | 55° |
| 2026-04-22 09:46 | 40.84449 | 9.41445 | 2102 ft | 149 kts | 54° |
| 2026-04-22 09:46 | 40.85039 | 9.42564 | 1841 ft | 141 kts | 54° |
| 2026-04-22 09:46 | 40.85589 | 9.43615 | 1580 ft | 137 kts | 54° |
| 2026-04-22 09:47 | 40.86130 | 9.44645 | 1374 ft | 135 kts | 53° |
| 2026-04-22 09:47 | 40.86668 | 9.45658 | 1198 ft | 135 kts | 55° |
| 2026-04-22 09:47 | 40.87205 | 9.46682 | 1001 ft | 135 kts | 55° |
| 2026-04-22 09:47 | 40.87722 | 9.47710 | 797 ft | 134 kts | 54° |
| 2026-04-22 09:48 | 40.88263 | 9.48723 | 551 ft | 136 kts | 52° |
| 2026-04-22 09:48 | 40.88805 | 9.49739 | 317 ft | 134 kts | 54° |
| 2026-04-22 09:48 | 40.89334 | 9.50751 | 101 ft | 133 kts | 53° |
| 2026-04-22 09:48 | 40.89830 | 9.51688 | 23 ft | 113 kts | 55° |
| 2026-04-22 09:49 | 40.90174 | 9.52338 | 29 ft | 61 kts | 55° |
| 2026-04-22 09:49 | 40.90362 | 9.52682 | 18 ft | 26 kts | 40° |
| 2026-04-22 09:49 | 40.90454 | 9.52597 | 20 ft | 18 kts | 258° |
| 2026-04-22 09:49 | 40.90436 | 9.52451 | 24 ft | 14 kts | 233° |
| 2026-04-22 09:50 | 40.90385 | 9.52359 | 26 ft | 11 kts | 235° |
| 2026-04-22 09:50 | 40.90350 | 9.52292 | 28 ft | 7 kts | 236° |
| 2026-04-22 09:50 | 40.90323 | 9.52238 | 29 ft | 11 kts | 236° |
| 2026-04-22 09:50 | 40.90270 | 9.52129 | 29 ft | 13 kts | 237° |
| 2026-04-22 09:51 | 40.90219 | 9.52035 | 29 ft | 12 kts | 234° |
| 2026-04-22 09:51 | 40.90178 | 9.51948 | 30 ft | 10 kts | 252° |
| 2026-04-22 09:51 | 40.90180 | 9.51886 | 33 ft | 3 kts | 276° |
| 2026-04-22 09:51 | 40.90183 | 9.51856 | 35 ft | 7 kts | 277° |
| 2026-04-22 09:52 | 40.90222 | 9.51783 | 35 ft | 11 kts | 279° |
| 2026-04-22 09:52 | 40.90256 | 9.51716 | 35 ft | 6 kts | 328° |
| 2026-04-22 09:52 | 40.90265 | 9.51708 | 35 ft | 0 kts | 326° |
| 2026-04-22 09:52 | 40.90266 | 9.51708 | 35 ft | 0 kts | 326° |